Aviation Digital Data Service (ADDS)

Output produced by METARs form (0954 UTC 23 April 2017)
found at http://www.aviationweather.gov/adds/metars/
 
NSFA 230900Z 09007KT 9999 BKN020 28/22 Q1012
NSFA 230800Z 09003KT 9999 SCT020 27/23 Q1011
NSFA 230700Z 10005KT 9999 SCT020 28/23 Q1011
NSFA 230600Z 11007KT 9999 SCT020 28/23 Q1010
NSFA 230500Z 21003KT 9999 SCT020 29/26 Q1009
NSFA 230400Z 12006KT 9999 BKN020 30/25 Q1009
NSFA 230300Z 06008KT 9999 SCT020 BKN130 30/24 Q1009
NSFA 230200Z 07008KT 9999 DZ SCT020 BKN040 30/25 Q1009
NSFA 230100Z 06009KT 9999 DZ FEW020 BKN040 30/26 Q1009
NSFA 230000Z 07013KT 9999 DZ FEW020CB SCT040 BKN120 31/26 Q1010 RMK CB TO WSW
NSFA 222300Z 06014KT 9999 DZ FEW020 SCT040 BKN120 31/24 Q1011
NSFA 222200Z 07013KT 9999 SCT020 BKN290 32/24 Q1012
NSFA 222100Z 12004KT 9999 FEW023 BKN290 32/24 Q1013
NSFA 222000Z 00000KT 9999 FEW026 BKN300 31/23 Q1012
NSFA 221900Z 00000KT 9999 FEW023 27/24 Q1012
NSFA 221800Z 11003KT 9999 FEW025 24/23 Q1011
NSFA 221700Z 11003KT 9999 FEW026 24/23 Q1011 RMK DEW
NSFA 221600Z 11004KT 9999 FEW026 24/23 Q1010 RMK DEW
NSFA 221400Z 00000KT 9999 FEW030 24/24 Q1010 RMK DEW
NSFA 221300Z 11003KT 9999 FEW028 25/24 Q1011 RMK DEW
NSFA 221200Z 10004KT 9999 FEW025 25/24 Q1011 RMK DEW
NSFA 221100Z 11003KT 9999 FEW024 25/24 Q1011
NSFA 221000Z 11003KT 9999 FEW023 25/25 Q1012 RMK DEW